Time;durP1;ratioP1;P1;durP2;ratioP2;P2;SDS_P1;SDS_P2;PMS_P1;PMS_P2;Temp;Humidity;BMP_temperature;BMP_pressure;BME280_temperature;BME280_humidity;BME280_pressure;Samples;Min_cycle;Max_cycle;Signal;HPM_P1;HPM_P2
2022/05/04 00:00:59;;;;;;;8.33;3.67;;;;;;;14.12;46.54;100336.44;124966;1099;112516;-77
2022/05/04 00:03:31;;;;;;;8.57;3.50;;;;;;;14.14;45.72;100338.22;126197;1098;101899;-76
2022/05/04 00:06:02;;;;;;;5.83;3.57;;;;;;;14.15;46.21;100350.56;124471;1099;104421;-76
2022/05/04 00:08:34;;;;;;;9.83;3.87;;;;;;;14.17;46.79;100342.67;124439;1099;102974;-76
2022/05/04 00:11:07;;;;;;;8.57;4.03;;;;;;;14.16;46.37;100347.08;124575;1099;104160;-76
2022/05/04 00:13:38;;;;;;;7.50;3.60;;;;;;;14.15;46.79;100345.28;125282;1099;104153;-77
2022/05/04 00:16:10;;;;;;;8.90;3.77;;;;;;;14.15;46.37;100347.92;125400;1099;104367;-76
2022/05/04 00:18:44;;;;;;;9.57;3.43;;;;;;;14.16;46.95;100340.89;125221;1099;104155;-77
2022/05/04 00:21:16;;;;;;;10.10;3.70;;;;;;;14.16;46.49;100346.16;124710;1099;109304;-76
2022/05/04 00:23:52;;;;;;;5.57;3.70;;;;;;;14.15;46.10;100354.97;124860;1099;102174;-76
2022/05/04 00:26:23;;;;;;;7.93;3.67;;;;;;;14.11;46.82;100355.75;125623;1098;103885;-77
2022/05/04 00:28:55;;;;;;;6.10;3.40;;;;;;;14.09;46.74;100349.57;125455;1099;102754;-77
2022/05/04 00:31:26;;;;;;;10.73;3.70;;;;;;;14.07;47.22;100349.54;125816;1099;104166;-77
2022/05/04 00:33:58;;;;;;;10.43;3.70;;;;;;;14.06;46.74;100345.11;125592;1099;104062;-77
2022/05/04 00:36:32;;;;;;;8.83;3.77;;;;;;;14.06;46.58;100349.52;125484;1099;102379;-77
2022/05/04 00:39:05;;;;;;;9.63;3.52;;;;;;;14.06;46.56;100347.75;125492;1099;104159;-77
2022/05/04 00:41:38;;;;;;;8.17;3.87;;;;;;;14.05;46.98;100345.08;124748;1099;102817;-77
2022/05/04 00:44:09;;;;;;;6.63;3.67;;;;;;;14.02;46.86;100340.62;125234;1099;104765;-76
2022/05/04 00:46:43;;;;;;;8.57;3.70;;;;;;;13.98;47.11;100333.53;126543;1098;102022;-76
2022/05/04 00:49:16;;;;;;;7.97;3.70;;;;;;;13.93;46.70;100341.36;125640;1098;102341;-77
2022/05/04 00:51:47;;;;;;;;;;;;;;;13.89;46.74;100331.59;125802;1099;102423;-76
2022/05/04 00:54:19;;;;;;;8.77;3.33;;;;;;;13.88;46.95;100329.80;126920;1099;104235;-77
2022/05/04 00:56:52;;;;;;;7.77;3.60;;;;;;;13.87;47.05;100328.05;125486;1099;104152;-76
2022/05/04 00:59:24;;;;;;;9.43;3.30;;;;;;;13.88;46.80;100329.80;125077;1099;102897;-76
2022/05/04 01:01:57;;;;;;;8.73;3.77;;;;;;;13.87;46.43;100335.96;125634;1099;102117;-77
2022/05/04 01:04:30;;;;;;;9.10;3.83;;;;;;;13.87;46.97;100342.96;125120;1099;104198;-77
2022/05/04 01:07:01;;;;;;;6.10;3.60;;;;;;;13.88;46.68;100342.12;125244;1099;104223;-76
2022/05/04 01:09:35;;;;;;;12.97;3.83;;;;;;;13.86;47.31;100346.48;125402;1099;103107;-76
2022/05/04 01:12:10;;;;;;;7.30;3.67;;;;;;;13.85;47.30;100350.84;126489;1098;102633;-76
2022/05/04 01:14:42;;;;;;;8.47;3.50;;;;;;;13.85;46.70;100345.56;126604;1099;102188;-76
2022/05/04 01:17:15;;;;;;;8.05;3.65;;;;;;;13.83;47.11;100352.58;125704;1099;104647;-77
2022/05/04 01:19:47;;;;;;;8.77;3.30;;;;;;;13.80;46.90;100360.42;125275;1098;104150;-77
2022/05/04 01:22:20;;;;;;;30.27;6.50;;;;;;;13.75;47.50;100362.09;125200;1099;104331;-76
2022/05/04 01:24:53;;;;;;;20.97;5.40;;;;;;;13.71;47.27;100371.66;125354;1099;102306;-76
2022/05/04 01:27:29;;;;;;;8.03;3.98;;;;;;;13.70;47.62;100366.35;125313;1099;102272;-76
2022/05/04 01:30:01;;;;;;;9.73;3.80;;;;;;;13.72;47.57;100369.94;125318;1098;104249;-76
2022/05/04 01:32:40;;;;;;;9.70;3.60;;;;;;;13.75;47.02;100370.00;125420;1099;104236;-77
2022/05/04 01:35:19;;;;;;;7.27;3.63;;;;;;;13.76;47.35;100372.67;126279;1098;103512;-77
2022/05/04 01:37:51;;;;;;;9.50;4.10;;;;;;;13.78;47.02;100370.06;126251;1098;102270;-77
2022/05/04 01:40:25;;;;;;;9.67;3.73;;;;;;;13.80;46.96;100363.94;125440;1099;103434;-76
2022/05/04 01:42:56;;;;;;;10.03;3.63;;;;;;;13.77;47.43;100363.00;126209;1098;111707;-77
2022/05/04 01:45:30;;;;;;;9.50;4.03;;;;;;;13.73;47.24;100369.05;125128;1099;104184;-76
2022/05/04 01:48:01;;;;;;;11.48;3.90;;;;;;;13.71;47.41;100370.78;126167;1097;101988;-76
2022/05/04 01:50:34;;;;;;;6.90;3.60;;;;;;;13.69;47.62;100369.88;125752;1099;104198;-77
2022/05/04 01:53:08;;;;;;;7.90;3.80;;;;;;;13.65;47.13;100363.66;125871;1098;104057;-77
2022/05/04 01:55:42;;;;;;;7.93;3.70;;;;;;;13.63;47.06;100374.17;125568;1099;104261;-77
2022/05/04 01:58:14;;;;;;;9.10;3.40;;;;;;;13.63;47.53;100370.62;125502;1099;102190;-77
2022/05/04 02:00:47;;;;;;;8.20;3.93;;;;;;;13.62;47.62;100375.01;125414;1099;102769;-76
2022/05/04 02:03:21;;;;;;;10.35;4.10;;;;;;;13.62;47.48;100375.01;125568;1099;103203;-77
2022/05/04 02:05:55;;;;;;;10.37;3.67;;;;;;;13.65;47.24;100377.72;125700;1099;104191;-78
2022/05/04 02:08:27;;;;;;;8.30;3.80;;;;;;;13.64;47.63;100365.38;125440;1098;104643;-77
2022/05/04 02:11:00;;;;;;;8.80;3.83;;;;;;;13.67;47.11;100367.20;125388;1097;102607;-77
2022/05/04 02:13:32;;;;;;;8.40;3.63;;;;;;;13.69;47.63;100360.20;125491;1099;104201;-77
2022/05/04 02:16:05;;;;;;;8.50;3.70;;;;;;;13.73;47.31;100366.41;125609;1099;102176;-78
2022/05/04 02:18:37;;;;;;;8.33;3.90;;;;;;;13.74;47.56;100373.48;127021;1099;101717;-77
2022/05/04 02:21:10;;;;;;;8.63;4.00;;;;;;;13.76;48.18;100371.75;125367;1099;104259;-77
2022/05/04 02:23:43;;;;;;;9.18;3.75;;;;;;;13.77;47.58;100365.63;125614;1099;102038;-78
2022/05/04 02:26:15;;;;;;;6.47;3.63;;;;;;;13.78;47.98;100354.23;126541;1098;104233;-77
2022/05/04 02:28:47;;;;;;;9.57;4.10;;;;;;;13.77;48.54;100352.45;125554;1098;102920;-77
2022/05/04 02:31:20;;;;;;;8.00;4.20;;;;;;;13.68;48.77;100346.98;125682;1099;102407;-76
2022/05/04 02:33:52;;;;;;;6.30;3.70;;;;;;;13.61;49.27;100351.25;125389;1099;104219;-77
2022/05/04 02:39:13;;;;;;;8.63;4.40;;;;;;;13.47;49.55;100345.69;125127;1099;104253;-76
2022/05/04 02:41:48;;;;;;;8.43;4.23;;;;;;;13.41;49.74;100350.82;125157;1099;102784;-77
2022/05/04 02:44:22;;;;;;;10.60;4.17;;;;;;;13.35;50.02;100361.23;125405;1099;102810;-77
2022/05/04 02:46:54;;;;;;;9.17;4.37;;;;;;;13.33;50.13;100355.01;125621;1099;104233;-77
2022/05/04 02:49:27;;;;;;;11.13;4.40;;;;;;;13.29;50.43;100354.94;125280;1099;102780;-76
2022/05/04 02:51:59;;;;;;;8.93;4.10;;;;;;;13.26;50.49;100365.41;125429;1099;104223;-77
2022/05/04 02:54:32;;;;;;;12.37;4.20;;;;;;;13.22;50.88;100354.77;125277;1099;104337;-77
2022/05/04 02:57:06;;;;;;;10.40;4.60;;;;;;;13.20;50.64;100357.37;125260;1098;104267;-76
2022/05/04 02:59:38;;;;;;;8.80;4.40;;;;;;;13.22;50.72;100357.41;125433;1099;104225;-76
2022/05/04 03:02:28;;;;;;;10.93;4.90;;;;;;;13.24;50.84;100353.05;125026;1099;102070;-77
2022/05/04 03:05:01;;;;;;;9.23;4.77;;;;;;;13.26;50.99;100349.60;124968;1099;117766;-76
2022/05/04 03:07:33;;;;;;;10.57;4.63;;;;;;;13.27;50.99;100351.36;125041;1099;104239;-76
2022/05/04 03:10:07;;;;;;;8.20;4.30;;;;;;;13.28;51.22;100350.52;124931;1099;104157;-76
2022/05/04 03:12:39;;;;;;;9.23;4.20;;;;;;;13.29;51.73;100347.03;124960;1099;104226;-77
2022/05/04 03:15:13;;;;;;;10.57;4.63;;;;;;;13.33;51.35;100344.47;124862;1099;104252;-77
2022/05/04 03:17:45;;;;;;;9.40;4.22;;;;;;;13.34;51.67;100346.27;124947;1099;104189;-77
2022/05/04 03:20:18;;;;;;;11.73;5.03;;;;;;;13.37;52.02;100351.59;124486;1099;104415;-77
2022/05/04 03:22:51;;;;;;;10.58;4.55;;;;;;;13.31;52.19;100361.12;124909;1099;104187;-77
2022/05/04 03:25:23;;;;;;;9.50;4.53;;;;;;;13.30;52.00;100361.97;124967;1099;104191;-76
2022/05/04 03:27:57;;;;;;;21.07;5.97;;;;;;;13.30;52.12;100367.24;124950;1099;104284;-76
2022/05/04 03:30:29;;;;;;;23.77;5.87;;;;;;;13.27;53.12;100395.28;125019;1099;102409;-76
2022/05/04 03:33:01;;;;;;;9.43;4.60;;;;;;;13.21;52.84;100397.77;124920;1099;102788;-76
2022/05/04 03:35:35;;;;;;;12.23;4.93;;;;;;;13.17;52.54;100401.20;124976;1099;102785;-77
2022/05/04 03:38:08;;;;;;;8.90;4.60;;;;;;;13.15;52.76;100408.16;124916;1099;101858;-76
2022/05/04 03:40:40;;;;;;;14.90;5.80;;;;;;;13.20;52.42;100406.52;125025;1099;104217;-76
2022/05/04 03:43:12;;;;;;;10.13;4.93;;;;;;;13.24;52.83;100409.26;124902;1099;102184;-76
2022/05/04 03:45:44;;;;;;;7.83;4.83;;;;;;;13.27;52.84;100404.06;125105;1098;104259;-76
2022/05/04 03:48:17;;;;;;;15.83;6.23;;;;;;;13.26;52.82;100401.39;124517;1099;104367;-77
2022/05/04 03:50:51;;;;;;;12.27;5.97;;;;;;;13.26;52.68;100411.93;125003;1099;104219;-76
2022/05/04 03:53:23;;;;;;;14.17;6.70;;;;;;;13.25;53.36;100408.41;124850;1099;104746;-77
2022/05/04 03:55:57;;;;;;;17.10;6.87;;;;;;;13.24;53.28;100411.89;125003;1099;104315;-77
2022/05/04 03:58:29;;;;;;;15.30;6.63;;;;;;;13.23;53.65;100417.13;124942;1099;104239;-77
2022/05/04 04:01:03;;;;;;;15.37;7.00;;;;;;;13.22;53.52;100421.52;124949;1099;104182;-76
2022/05/04 04:03:37;;;;;;;11.93;6.30;;;;;;;13.19;53.71;100415.30;126041;1099;102759;-76
2022/05/04 04:06:11;;;;;;;15.87;6.40;;;;;;;13.15;53.63;100422.25;125569;1099;102762;-75
2022/05/04 04:08:44;;;;;;;14.07;6.23;;;;;;;13.13;53.72;100424.84;126625;1099;102027;-76
2022/05/04 04:11:16;;;;;;;13.50;6.40;;;;;;;13.17;53.95;100431.06;125884;1099;102879;-76
2022/05/04 04:13:54;;;;;;;13.93;6.13;;;;;;;13.21;54.01;100427.63;126845;1097;102024;-75
2022/05/04 04:16:29;;;;;;;14.33;6.10;;;;;;;13.28;54.46;100426.94;125921;1099;110813;-76
2022/05/04 04:19:02;;;;;;;17.37;5.97;;;;;;;13.34;54.42;100420.05;126004;1099;101774;-76
2022/05/04 04:21:52;;;;;;;15.03;6.27;;;;;;;13.40;54.27;100409.65;125683;1099;102771;-75
2022/05/04 04:24:24;;;;;;;10.77;5.50;;;;;;;13.45;54.13;100408.91;125573;1099;104229;-76
2022/05/04 04:26:58;;;;;;;15.77;5.93;;;;;;;13.51;54.34;100408.17;126506;1099;102919;-76
2022/05/04 04:29:37;;;;;;;19.23;8.63;;;;;;;13.58;54.23;100410.06;126662;1097;104232;-76
2022/05/04 04:32:12;;;;;;;20.67;8.60;;;;;;;13.66;54.26;100411.14;125714;1099;104284;-77
2022/05/04 04:34:45;;;;;;;14.33;5.97;;;;;;;13.76;54.38;100408.67;125663;1099;104220;-77
2022/05/04 04:37:17;;;;;;;17.47;5.90;;;;;;;13.83;54.81;100408.84;124920;1099;104338;-77
2022/05/04 04:39:51;;;;;;;14.43;6.03;;;;;;;13.91;54.80;100406.36;125290;1099;102242;-77
2022/05/04 04:42:25;;;;;;;21.03;5.70;;;;;;;13.98;54.67;100402.13;125200;1099;104191;-78
2022/05/04 04:44:59;;;;;;;16.40;6.07;;;;;;;14.07;54.60;100398.75;125114;1099;104300;-77
2022/05/04 04:47:30;;;;;;;;;;;;;;;14.12;54.85;100392.72;125415;1098;104175;-76
2022/05/04 04:53:45;;;;;;;10.67;5.27;;;;;;;14.29;54.30;100398.33;125205;1099;104166;-77
2022/05/04 04:56:19;;;;;;;22.70;9.03;;;;;;;14.36;54.64;100397.56;124932;1099;104191;-77
2022/05/04 04:58:51;;;;;;;18.17;6.20;;;;;;;14.46;54.36;100393.36;124930;1098;101815;-77
2022/05/04 05:01:23;;;;;;;11.70;5.57;;;;;;;14.55;54.22;100400.55;125063;1099;102948;-77
2022/05/04 05:03:56;;;;;;;12.30;5.23;;;;;;;14.60;54.42;100406.85;124886;1099;101842;-77
2022/05/04 05:06:30;;;;;;;10.33;5.10;;;;;;;14.65;53.70;100397.25;125011;1099;104231;-77
2022/05/04 05:09:02;;;;;;;12.00;4.87;;;;;;;14.72;54.41;100399.14;124859;1098;104217;-77
2022/05/04 05:11:34;;;;;;;13.83;4.93;;;;;;;14.80;54.31;100393.08;124824;1099;102781;-76
2022/05/04 05:16:55;;;;;;;11.90;5.13;;;;;;;14.87;54.07;100403.77;125170;1099;102360;-76
2022/05/04 05:19:27;;;;;;;22.10;5.83;;;;;;;14.89;53.71;100401.16;125132;1099;102806;-76
2022/05/04 05:21:59;;;;;;;13.43;5.97;;;;;;;14.93;53.41;100400.36;124872;1099;102851;-76
2022/05/04 05:24:34;;;;;;;11.83;5.70;;;;;;;14.99;53.34;100404.83;125201;1099;102804;-77
2022/05/04 05:27:09;;;;;;;11.00;5.60;;;;;;;15.06;54.24;100399.67;125311;1099;101970;-77
2022/05/04 05:29:42;;;;;;;19.07;6.50;;;;;;;15.21;54.54;100408.73;125110;1099;102842;-77
2022/05/04 05:32:17;;;;;;;15.10;6.10;;;;;;;15.33;53.64;100406.23;124896;1099;104296;-77
2022/05/04 05:34:55;;;;;;;15.80;6.23;;;;;;;15.46;53.69;100407.33;125265;1099;104194;-77
2022/05/04 05:37:30;;;;;;;14.30;6.13;;;;;;;15.58;53.97;100406.59;125225;1099;104156;-77
2022/05/04 05:40:02;;;;;;;13.40;6.10;;;;;;;15.71;53.36;100402.38;125103;1099;104632;-77
2022/05/04 05:42:39;;;;;;;17.50;6.47;;;;;;;15.86;54.12;100399.94;125064;1099;102848;-78
2022/05/04 05:45:12;;;;;;;14.35;5.70;;;;;;;15.98;53.94;100401.86;124976;1099;104322;-78
2022/05/04 05:47:44;;;;;;;11.33;5.83;;;;;;;16.12;53.85;100400.25;124978;1099;104322;-78
2022/05/04 05:50:19;;;;;;;14.63;5.97;;;;;;;16.16;53.78;100404.72;125212;1099;102528;-78
2022/05/04 05:52:52;;;;;;;10.17;5.43;;;;;;;16.08;53.29;100406.40;124991;1099;104389;-78
2022/05/04 05:55:25;;;;;;;17.73;6.67;;;;;;;16.03;53.05;100405.44;125144;1098;104392;-78
2022/05/04 05:58:09;;;;;;;12.03;5.27;;;;;;;16.03;53.66;100415.14;124855;1099;104185;-79
2022/05/04 06:00:45;;;;;;;15.27;5.60;;;;;;;16.01;52.82;100415.12;125539;1099;104207;-79
2022/05/04 06:03:17;;;;;;;13.47;6.10;;;;;;;16.03;53.30;100423.08;125567;1099;102818;-80
2022/05/04 06:05:49;;;;;;;14.10;5.83;;;;;;;15.97;52.79;100422.15;125040;1099;102527;-79
2022/05/04 06:08:21;;;;;;;16.10;6.63;;;;;;;15.96;52.64;100427.42;125057;1098;103568;-79
2022/05/04 06:10:53;;;;;;;16.33;6.60;;;;;;;15.92;52.51;100433.53;125138;1099;104121;-78
2022/05/04 06:16:18;;;;;;;15.67;7.50;;;;;;;15.92;52.54;100434.41;125682;1099;104268;-79
2022/05/04 06:18:54;;;;;;;16.30;7.53;;;;;;;15.92;52.43;100436.18;125048;1099;119399;-78
2022/05/04 06:21:48;;;;;;;;;;;;;;;;;;;;;
2022/05/04 06:24:22;;;;;;;16.57;7.10;;;;;;;15.97;52.25;100434.47;125047;1099;102374;-78
2022/05/04 06:27:18;;;;;;;17.50;6.50;;;;;;;16.04;52.98;100433.69;125187;1098;104088;-78
2022/05/04 06:35:48;;;;;;;11.03;5.20;;;;;;;16.33;51.80;100426.09;125071;1099;104235;-77
2022/05/04 06:38:34;;;;;;;17.53;6.17;;;;;;;16.42;51.83;100424.41;125600;1099;104224;-78
2022/05/04 06:41:10;;;;;;;16.50;6.37;;;;;;;16.54;52.04;100429.83;125236;1099;104235;-78
2022/05/04 06:43:45;;;;;;;8.90;5.23;;;;;;;16.60;51.02;100432.55;125822;1099;104232;-78
2022/05/04 06:46:19;;;;;;;11.00;4.80;;;;;;;16.63;51.69;100423.75;125288;1099;104268;-78
2022/05/04 06:49:02;;;;;;;12.57;5.00;;;;;;;16.63;51.04;100429.92;125183;1099;104389;-79
2022/05/04 06:51:46;;;;;;;13.63;5.27;;;;;;;16.66;51.18;100429.08;125520;1099;104179;-79
2022/05/04 06:54:31;;;;;;;13.50;5.97;;;;;;;16.79;50.89;100430.95;125386;1099;102586;-79
2022/05/04 07:00:40;;;;;;;13.25;5.45;;;;;;;17.09;51.31;100436.54;124829;1101;118924;-77
2022/05/04 07:03:12;;;;;;;11.63;4.97;;;;;;;17.23;50.89;100445.48;124581;1102;103370;-79
2022/05/04 07:05:48;;;;;;;12.10;4.70;;;;;;;17.32;50.02;100442.02;124796;1102;102813;-82
2022/05/04 07:08:20;;;;;;;15.90;5.37;;;;;;;17.43;50.27;100442.97;124735;1102;104493;-77
2022/05/04 07:11:11;;;;;;;8.55;4.50;;;;;;;17.55;50.07;100451.02;124802;1102;104300;-78
2022/05/04 07:13:51;;;;;;;15.70;6.17;;;;;;;17.74;50.04;100443.17;124726;1103;104248;-78
2022/05/04 07:16:25;;;;;;;8.33;4.63;;;;;;;17.91;49.73;100433.55;124615;1103;102477;-78
2022/05/04 07:19:08;;;;;;;11.70;5.07;;;;;;;18.07;49.78;100433.62;124663;1102;102011;-78
2022/05/04 07:21:53;;;;;;;8.75;4.45;;;;;;;18.25;49.51;100439.00;124845;1102;104185;-80
2022/05/04 07:24:28;;;;;;;10.40;4.90;;;;;;;18.51;49.61;100440.82;124721;1102;102637;-80
2022/05/04 07:27:04;;;;;;;12.50;4.30;;;;;;;18.68;49.66;100439.11;124824;1102;104233;-79
2022/05/04 07:30:07;;;;;;;7.62;4.20;;;;;;;18.86;49.47;100432.06;124856;1102;102863;-79
2022/05/04 07:33:10;;;;;;;;;;;;;;;;;;;;;
2022/05/04 07:35:44;;;;;;;10.87;4.60;;;;;;;19.42;48.83;100445.34;124999;1099;104165;-80
2022/05/04 07:38:24;;;;;;;9.37;4.80;;;;;;;19.60;49.42;100439.08;125008;1099;102342;-80
2022/05/04 07:43:54;;;;;;;9.90;4.57;;;;;;;20.19;48.09;100431.80;125621;1099;102184;-79
2022/05/04 07:46:46;;;;;;;9.90;4.80;;;;;;;20.39;46.85;100423.70;125907;1099;104162;-78
2022/05/04 07:49:29;;;;;;;9.67;4.50;;;;;;;20.53;45.86;100426.29;126060;1099;102552;-78
2022/05/04 07:52:16;;;;;;;8.93;4.40;;;;;;;20.77;45.34;100430.59;125443;1098;104333;-78
2022/05/04 07:54:54;;;;;;;10.30;4.40;;;;;;;20.86;45.84;100406.52;125686;1099;104237;-78
2022/05/04 07:58:24;;;;;;;9.33;4.50;;;;;;;21.06;45.04;100416.15;126129;1099;104088;-78
2022/05/04 08:04:36;;;;;;;11.57;4.30;;;;;;;21.42;41.72;100422.03;124803;1106;102386;-79
2022/05/04 08:07:15;;;;;;;12.30;4.57;;;;;;;21.65;42.90;100416.48;124907;1106;104223;-80
2022/05/04 08:10:24;;;;;;;12.23;4.77;;;;;;;21.87;43.61;100412.64;125066;1102;102631;-79
2022/05/04 08:13:14;;;;;;;9.47;4.20;;;;;;;22.07;42.63;100424.88;125314;1105;104185;-80
2022/05/04 08:19:07;;;;;;;12.53;4.57;;;;;;;22.33;41.63;100418.31;125214;1102;104216;-79
2022/05/04 08:21:52;;;;;;;;;;;;;;;;;;;;;
2022/05/04 08:31:09;;;;;;;8.87;4.83;;;;;;;22.98;39.32;100408.41;124953;1102;104175;-78
2022/05/04 08:33:43;;;;;;;12.33;5.40;;;;;;;22.99;38.04;100414.63;125288;1102;101930;-78
2022/05/04 08:36:16;;;;;;;11.03;4.73;;;;;;;22.71;36.88;100425.77;124560;1102;101954;-78
2022/05/04 08:38:49;;;;;;;10.10;4.60;;;;;;;22.44;36.01;100427.09;124719;1099;102669;-78
2022/05/04 08:41:26;;;;;;;10.98;4.72;;;;;;;22.14;36.34;100425.67;125049;1099;102536;-79
2022/05/04 08:44:03;;;;;;;9.37;4.87;;;;;;;21.84;36.96;100434.05;125307;1099;104153;-78
2022/05/04 08:46:45;;;;;;;9.35;4.60;;;;;;;21.60;36.33;100434.31;125229;1099;104104;-79
2022/05/04 08:49:22;;;;;;;8.03;4.63;;;;;;;21.43;36.10;100440.70;125797;1099;104271;-79
2022/05/04 08:51:59;;;;;;;8.67;4.60;;;;;;;21.23;37.06;100440.89;125081;1099;104265;-79
2022/05/04 08:54:34;;;;;;;10.87;5.30;;;;;;;21.17;36.68;100438.27;125190;1099;102257;-80
2022/05/04 08:57:18;;;;;;;7.97;4.80;;;;;;;21.09;36.39;100443.67;125274;1099;102599;-81
2022/05/04 09:00:05;;;;;;;12.13;4.80;;;;;;;21.03;36.88;100438.39;125524;1099;104252;-78
2022/05/04 09:02:42;;;;;;;10.80;4.77;;;;;;;21.00;38.16;100439.32;125180;1099;102566;-79
2022/05/04 09:05:46;;;;;;;11.83;4.97;;;;;;;21.30;37.91;100441.70;125390;1098;102992;-80
2022/05/04 09:08:31;;;;;;;9.20;5.37;;;;;;;21.48;36.12;100435.31;125927;1099;103206;-80
2022/05/04 09:11:18;;;;;;;10.67;4.90;;;;;;;21.64;36.28;100444.08;126041;1099;102732;-80
2022/05/04 09:14:20;;;;;;;10.40;5.20;;;;;;;21.67;35.58;100463.61;125483;1099;111513;-80
2022/05/04 09:20:49;;;;;;;8.53;4.83;;;;;;;21.44;36.22;100450.48;125336;1099;103578;-80
2022/05/04 09:26:28;;;;;;;13.08;5.45;;;;;;;21.28;35.95;100460.40;125996;1098;102437;-79
2022/05/04 09:29:24;;;;;;;10.33;4.97;;;;;;;21.26;36.31;100456.00;125217;1099;104264;-79
2022/05/04 09:31:56;;;;;;;10.07;5.10;;;;;;;21.28;36.02;100457.73;126045;1099;102566;-78
2022/05/04 09:34:40;;;;;;;12.33;5.17;;;;;;;21.34;35.92;100444.33;125306;1099;102820;-79
2022/05/04 09:46:13;;;;;;;10.83;4.90;;;;;;;21.69;34.16;100439.56;125226;1099;102375;-79
2022/05/04 09:48:50;;;;;;;7.40;4.20;;;;;;;21.90;34.35;100441.11;125376;1099;103012;-79
2022/05/04 09:51:30;;;;;;;9.80;4.80;;;;;;;21.90;32.81;100435.77;125404;1099;104242;-78
2022/05/04 09:54:23;;;;;;;12.20;4.60;;;;;;;21.79;32.65;100430.55;125303;1099;104166;-80
2022/05/04 09:56:56;;;;;;;;;;;;;;;21.66;32.64;100431.58;125049;1099;103150;-80
2022/05/04 09:59:52;;;;;;;11.20;4.70;;;;;;;21.68;33.51;100427.13;125954;1099;104162;-80
2022/05/04 10:02:29;;;;;;;8.90;4.20;;;;;;;21.72;32.62;100429.75;124969;1102;104165;-80
2022/05/04 10:05:03;;;;;;;8.73;4.40;;;;;;;21.71;32.89;100422.63;125366;1099;104383;-82
2022/05/04 10:07:47;;;;;;;8.23;4.53;;;;;;;21.61;32.73;100430.76;125729;1099;104204;-78
2022/05/04 10:10:47;;;;;;;9.10;3.90;;;;;;;21.52;32.36;100432.63;125573;1099;102232;-80
2022/05/04 10:13:24;;;;;;;9.37;4.13;;;;;;;21.50;33.43;100429.11;125187;1099;102801;-78
2022/05/04 10:16:00;;;;;;;9.55;3.90;;;;;;;21.46;32.85;100423.78;124596;1101;104408;-78
2022/05/04 10:18:34;;;;;;;7.30;4.37;;;;;;;21.51;31.93;100424.64;125332;1099;104402;-79
2022/05/04 10:21:10;;;;;;;;;;;;;;;21.43;32.69;100402.45;125582;1099;104453;-78
2022/05/04 10:23:46;;;;;;;6.93;3.90;;;;;;;21.51;33.23;100405.95;125447;1099;103747;-79
2022/05/04 10:26:34;;;;;;;9.10;4.30;;;;;;;21.62;32.19;100395.16;125473;1099;102074;-81
2022/05/04 10:32:34;;;;;;;9.83;4.17;;;;;;;21.73;32.61;100399.45;125225;1098;104329;-78
2022/05/04 10:35:38;;;;;;;9.70;4.45;;;;;;;21.87;32.58;100404.62;125339;1099;102525;-78
2022/05/04 10:38:14;;;;;;;10.47;4.67;;;;;;;22.02;32.14;100398.22;125771;1099;102299;-79
2022/05/04 10:41:02;;;;;;;8.53;4.47;;;;;;;22.06;32.42;100391.94;125502;1099;102806;-78
2022/05/04 10:43:58;;;;;;;10.87;4.23;;;;;;;22.06;31.09;100404.39;126060;1099;102973;-78
2022/05/04 10:46:34;;;;;;;6.00;3.80;;;;;;;22.02;31.80;100400.89;126214;1099;102641;-79
2022/05/04 10:49:13;;;;;;;6.77;4.30;;;;;;;21.97;32.13;100389.39;126204;1098;103097;-79
2022/05/04 10:51:50;;;;;;;10.27;4.30;;;;;;;21.90;31.52;100395.70;125047;1099;104291;-80
2022/05/04 10:54:23;;;;;;;6.27;4.17;;;;;;;21.71;31.46;100397.72;124807;1099;103562;-79
2022/05/04 10:57:01;;;;;;;11.43;4.50;;;;;;;21.54;31.74;100382.77;125155;1100;102437;-81
2022/05/04 11:00:03;;;;;;;9.03;4.63;;;;;;;21.73;31.51;100390.56;124992;1099;102414;-79
2022/05/04 11:02:58;;;;;;;8.40;4.20;;;;;;;21.82;31.67;100384.24;124936;1099;105156;-79
2022/05/04 11:06:09;;;;;;;7.10;4.40;;;;;;;21.95;30.89;100380.48;125365;1099;101872;-78
2022/05/04 11:08:51;;;;;;;8.20;4.03;;;;;;;22.09;30.71;100382.98;125757;1102;101876;-81
2022/05/04 11:11:49;;;;;;;7.70;4.00;;;;;;;22.09;29.27;100382.98;125586;1102;102330;-79
2022/05/04 11:14:47;;;;;;;9.33;4.37;;;;;;;22.25;30.76;100379.20;125086;1102;102996;-78
2022/05/04 11:17:35;;;;;;;8.03;4.53;;;;;;;22.46;30.75;100366.45;125294;1102;102455;-78
2022/05/04 11:21:06;;;;;;;8.10;4.77;;;;;;;22.74;30.38;100357.98;124777;1102;103415;-80
2022/05/04 11:27:04;;;;;;;9.77;4.13;;;;;;;22.48;29.81;100375.32;124524;1102;119821;-78
2022/05/04 11:30:13;;;;;;;8.50;3.90;;;;;;;22.16;30.63;100379.33;124471;1102;103205;-78
2022/05/04 11:32:55;;;;;;;10.57;4.23;;;;;;;21.97;29.60;100376.03;124588;1102;104165;-81
2022/05/04 11:35:36;;;;;;;14.87;4.40;;;;;;;21.92;29.75;100366.30;124974;1099;104226;-80
2022/05/04 11:38:30;;;;;;;12.75;3.70;;;;;;;21.98;30.24;100359.08;124739;1098;104169;-81
2022/05/04 11:41:05;;;;;;;7.53;3.90;;;;;;;22.10;30.27;100351.83;125833;1099;104210;-79
2022/05/04 11:44:04;;;;;;;6.53;3.70;;;;;;;22.18;29.74;100348.11;126132;1099;104277;-78
2022/05/04 11:46:43;;;;;;;8.27;3.50;;;;;;;22.14;29.73;100354.39;125428;1099;104150;-79
2022/05/04 11:49:31;;;;;;;8.10;3.50;;;;;;;22.20;29.30;100348.09;125322;1099;104123;-80
2022/05/04 11:52:10;;;;;;;7.43;3.90;;;;;;;22.34;28.98;100355.95;125428;1099;101875;-77
2022/05/04 11:54:52;;;;;;;6.60;3.40;;;;;;;22.20;28.15;100346.30;125150;1099;104146;-78
2022/05/04 11:58:00;;;;;;;8.27;3.77;;;;;;;22.19;27.73;100362.35;125323;1099;104210;-80
2022/05/04 12:00:34;;;;;;;4.90;3.10;;;;;;;22.15;27.96;100352.63;125775;1099;104267;-80
2022/05/04 12:03:09;;;;;;;6.27;3.00;;;;;;;22.08;27.21;100366.08;125107;1099;104954;-79
2022/05/04 12:05:47;;;;;;;6.43;3.10;;;;;;;21.97;26.23;100348.41;125450;1099;103375;-79
2022/05/04 12:08:22;;;;;;;6.80;3.30;;;;;;;21.96;26.84;100347.55;124638;1103;104521;-79
2022/05/04 12:14:06;;;;;;;6.57;3.40;;;;;;;22.04;27.09;100360.80;125146;1099;104294;-79
2022/05/04 12:16:43;;;;;;;6.87;3.20;;;;;;;22.13;26.50;100358.00;125106;1099;104384;-79
2022/05/04 12:19:38;;;;;;;8.73;3.53;;;;;;;22.10;26.15;100350.02;124702;1099;102945;-80
2022/05/04 12:22:19;;;;;;;8.15;3.55;;;;;;;22.11;26.40;100348.22;125446;1099;104329;-79
2022/05/04 12:24:55;;;;;;;5.77;3.00;;;;;;;22.18;26.79;100336.55;124740;1099;102363;-80
2022/05/04 12:27:37;;;;;;;5.67;3.13;;;;;;;22.29;27.25;100341.74;125211;1099;104517;-80
2022/05/04 12:33:52;;;;;;;5.87;3.33;;;;;;;22.22;26.76;100333.81;125054;1102;102519;-79
2022/05/04 12:36:37;;;;;;;8.13;3.30;;;;;;;22.26;26.81;100345.33;124756;1105;102392;-78
2022/05/04 12:39:15;;;;;;;7.57;3.30;;;;;;;22.36;27.51;100338.98;124798;1102;102842;-78
2022/05/04 12:42:01;;;;;;;5.17;3.27;;;;;;;22.42;26.94;100332.64;125067;1105;102587;-77
2022/05/04 12:44:37;;;;;;;5.73;3.00;;;;;;;22.44;27.47;100333.52;124807;1102;101870;-77
2022/05/04 12:47:35;;;;;;;7.00;3.70;;;;;;;22.40;27.67;100358.52;124939;1102;102293;-79
2022/05/04 12:50:14;;;;;;;5.43;3.00;;;;;;;22.27;27.06;100341.77;125255;1102;119055;-77
2022/05/04 12:52:56;;;;;;;8.87;3.50;;;;;;;22.28;27.36;100332.82;125046;1099;104197;-77
2022/05/04 12:58:51;;;;;;;;;;;;;;;22.17;26.90;100335.65;125457;1100;102465;-79
2022/05/04 13:01:42;;;;;;;7.03;3.00;;;;;;;22.07;26.45;100350.06;125816;1099;104160;-79
2022/05/04 13:04:26;;;;;;;5.23;2.77;;;;;;;22.05;27.19;100328.72;124942;1099;104361;-78
2022/05/04 13:06:59;;;;;;;4.97;2.83;;;;;;;22.06;27.47;100343.85;125058;1102;104466;-78
2022/05/04 13:09:52;;;;;;;7.83;2.80;;;;;;;22.09;27.04;100332.22;125322;1099;102397;-80
2022/05/04 13:12:30;;;;;;;7.33;2.80;;;;;;;22.19;27.10;100332.95;124642;1102;104208;-77